sensor_id;sensor_type;location;lat;lon;timestamp;P1;durP1;ratioP1;P2;durP2;ratioP2
40653;SDS011;26344;45.532;9.232;2023-02-03T00:01:32;24.67;;;13.77;;
40653;SDS011;26344;45.532;9.232;2023-02-03T00:03:58;24.67;;;13.68;;
40653;SDS011;26344;45.532;9.232;2023-02-03T00:06:24;25.65;;;13.48;;
40653;SDS011;26344;45.532;9.232;2023-02-03T00:08:54;26.13;;;14.07;;
40653;SDS011;26344;45.532;9.232;2023-02-03T00:11:20;28.88;;;14.35;;
40653;SDS011;26344;45.532;9.232;2023-02-03T00:13:46;24.90;;;14.35;;
40653;SDS011;26344;45.532;9.232;2023-02-03T00:16:12;23.88;;;13.85;;
40653;SDS011;26344;45.532;9.232;2023-02-03T00:18:38;25.63;;;13.32;;
40653;SDS011;26344;45.532;9.232;2023-02-03T00:21:05;23.35;;;12.25;;
40653;SDS011;26344;45.532;9.232;2023-02-03T00:23:32;22.63;;;13.55;;
40653;SDS011;26344;45.532;9.232;2023-02-03T00:26:14;24.23;;;12.52;;
40653;SDS011;26344;45.532;9.232;2023-02-03T00:28:41;19.20;;;11.57;;
40653;SDS011;26344;45.532;9.232;2023-02-03T00:31:16;19.90;;;11.00;;
40653;SDS011;26344;45.532;9.232;2023-02-03T00:33:44;24.10;;;10.85;;
40653;SDS011;26344;45.532;9.232;2023-02-03T00:36:10;19.08;;;11.40;;
40653;SDS011;26344;45.532;9.232;2023-02-03T00:38:36;17.30;;;10.10;;
40653;SDS011;26344;45.532;9.232;2023-02-03T00:41:02;22.90;;;10.85;;
40653;SDS011;26344;45.532;9.232;2023-02-03T00:43:28;22.17;;;10.48;;
40653;SDS011;26344;45.532;9.232;2023-02-03T00:45:54;22.73;;;11.55;;
40653;SDS011;26344;45.532;9.232;2023-02-03T00:48:20;19.63;;;11.32;;
40653;SDS011;26344;45.532;9.232;2023-02-03T00:50:46;20.67;;;11.23;;
40653;SDS011;26344;45.532;9.232;2023-02-03T00:53:13;19.25;;;10.48;;
40653;SDS011;26344;45.532;9.232;2023-02-03T00:55:41;18.77;;;10.15;;
40653;SDS011;26344;45.532;9.232;2023-02-03T00:58:11;15.88;;;10.07;;
40653;SDS011;26344;45.532;9.232;2023-02-03T01:00:37;18.00;;;10.52;;
40653;SDS011;26344;45.532;9.232;2023-02-03T01:03:03;19.42;;;9.95;;
40653;SDS011;26344;45.532;9.232;2023-02-03T01:05:32;17.30;;;10.20;;
40653;SDS011;26344;45.532;9.232;2023-02-03T01:07:59;17.27;;;10.35;;
40653;SDS011;26344;45.532;9.232;2023-02-03T01:10:25;20.48;;;10.65;;
40653;SDS011;26344;45.532;9.232;2023-02-03T01:12:51;21.75;;;10.93;;
40653;SDS011;26344;45.532;9.232;2023-02-03T01:15:17;18.75;;;9.93;;
40653;SDS011;26344;45.532;9.232;2023-02-03T01:17:44;19.67;;;10.55;;
40653;SDS011;26344;45.532;9.232;2023-02-03T01:20:10;19.73;;;10.98;;
40653;SDS011;26344;45.532;9.232;2023-02-03T01:22:37;20.77;;;10.85;;
40653;SDS011;26344;45.532;9.232;2023-02-03T01:25:04;18.90;;;10.15;;
40653;SDS011;26344;45.532;9.232;2023-02-03T01:27:30;20.45;;;10.38;;
40653;SDS011;26344;45.532;9.232;2023-02-03T01:29:56;18.35;;;10.30;;
40653;SDS011;26344;45.532;9.232;2023-02-03T01:32:22;25.70;;;10.73;;
40653;SDS011;26344;45.532;9.232;2023-02-03T01:34:51;16.20;;;10.18;;
40653;SDS011;26344;45.532;9.232;2023-02-03T01:37:17;11.67;;;7.50;;
40653;SDS011;26344;45.532;9.232;2023-02-03T01:39:43;18.92;;;9.63;;
40653;SDS011;26344;45.532;9.232;2023-02-03T01:42:14;18.38;;;9.30;;
40653;SDS011;26344;45.532;9.232;2023-02-03T01:52:38;14.77;;;8.70;;
40653;SDS011;26344;45.532;9.232;2023-02-03T01:55:06;17.35;;;8.65;;
40653;SDS011;26344;45.532;9.232;2023-02-03T01:57:35;13.88;;;8.23;;
40653;SDS011;26344;45.532;9.232;2023-02-03T02:00:03;14.65;;;8.48;;
40653;SDS011;26344;45.532;9.232;2023-02-03T02:02:30;15.80;;;7.95;;
40653;SDS011;26344;45.532;9.232;2023-02-03T02:05:14;17.75;;;8.38;;
40653;SDS011;26344;45.532;9.232;2023-02-03T02:07:41;17.20;;;8.80;;
40653;SDS011;26344;45.532;9.232;2023-02-03T02:10:07;15.38;;;8.27;;
40653;SDS011;26344;45.532;9.232;2023-02-03T02:12:33;16.27;;;8.70;;
40653;SDS011;26344;45.532;9.232;2023-02-03T02:14:59;16.40;;;8.45;;
40653;SDS011;26344;45.532;9.232;2023-02-03T02:17:33;15.85;;;8.95;;
40653;SDS011;26344;45.532;9.232;2023-02-03T02:20:16;15.02;;;8.93;;
40653;SDS011;26344;45.532;9.232;2023-02-03T02:22:52;16.90;;;9.32;;
40653;SDS011;26344;45.532;9.232;2023-02-03T02:25:35;14.70;;;9.05;;
40653;SDS011;26344;45.532;9.232;2023-02-03T02:33:47;19.83;;;10.02;;
40653;SDS011;26344;45.532;9.232;2023-02-03T02:47:15;16.63;;;10.40;;
40653;SDS011;26344;45.532;9.232;2023-02-03T02:52:14;16.90;;;9.30;;
40653;SDS011;26344;45.532;9.232;2023-02-03T02:54:43;17.15;;;9.30;;
40653;SDS011;26344;45.532;9.232;2023-02-03T02:57:13;20.08;;;10.02;;
40653;SDS011;26344;45.532;9.232;2023-02-03T02:59:41;16.42;;;9.63;;
40653;SDS011;26344;45.532;9.232;2023-02-03T03:02:08;17.45;;;10.35;;
40653;SDS011;26344;45.532;9.232;2023-02-03T03:04:35;17.85;;;10.20;;
40653;SDS011;26344;45.532;9.232;2023-02-03T03:07:08;21.10;;;9.95;;
40653;SDS011;26344;45.532;9.232;2023-02-03T03:09:38;19.45;;;10.35;;
40653;SDS011;26344;45.532;9.232;2023-02-03T03:12:07;18.05;;;11.18;;
40653;SDS011;26344;45.532;9.232;2023-02-03T03:17:02;16.80;;;9.98;;
40653;SDS011;26344;45.532;9.232;2023-02-03T03:19:40;22.17;;;9.70;;
40653;SDS011;26344;45.532;9.232;2023-02-03T03:22:08;17.20;;;9.75;;
40653;SDS011;26344;45.532;9.232;2023-02-03T03:24:41;16.48;;;9.20;;
40653;SDS011;26344;45.532;9.232;2023-02-03T03:27:22;15.15;;;8.73;;
40653;SDS011;26344;45.532;9.232;2023-02-03T03:29:53;17.00;;;9.48;;
40653;SDS011;26344;45.532;9.232;2023-02-03T03:32:19;18.17;;;9.27;;
40653;SDS011;26344;45.532;9.232;2023-02-03T03:34:45;15.27;;;8.60;;
40653;SDS011;26344;45.532;9.232;2023-02-03T03:37:22;17.70;;;9.07;;
40653;SDS011;26344;45.532;9.232;2023-02-03T03:39:55;17.33;;;8.20;;
40653;SDS011;26344;45.532;9.232;2023-02-03T03:42:40;16.80;;;8.65;;
40653;SDS011;26344;45.532;9.232;2023-02-03T03:45:13;17.02;;;9.02;;
40653;SDS011;26344;45.532;9.232;2023-02-03T03:47:52;17.85;;;8.38;;
40653;SDS011;26344;45.532;9.232;2023-02-03T03:50:19;14.98;;;8.27;;
40653;SDS011;26344;45.532;9.232;2023-02-03T03:52:49;12.38;;;7.78;;
40653;SDS011;26344;45.532;9.232;2023-02-03T03:55:17;12.68;;;6.88;;
40653;SDS011;26344;45.532;9.232;2023-02-03T03:57:46;14.55;;;7.63;;
40653;SDS011;26344;45.532;9.232;2023-02-03T04:00:14;12.43;;;7.50;;
40653;SDS011;26344;45.532;9.232;2023-02-03T04:02:43;12.77;;;7.80;;
40653;SDS011;26344;45.532;9.232;2023-02-03T04:05:10;12.70;;;7.28;;
40653;SDS011;26344;45.532;9.232;2023-02-03T04:07:38;13.90;;;7.40;;
40653;SDS011;26344;45.532;9.232;2023-02-03T04:10:05;12.82;;;7.68;;
40653;SDS011;26344;45.532;9.232;2023-02-03T04:12:32;16.73;;;7.90;;
40653;SDS011;26344;45.532;9.232;2023-02-03T04:14:58;12.18;;;7.57;;
40653;SDS011;26344;45.532;9.232;2023-02-03T04:17:24;13.75;;;7.53;;
40653;SDS011;26344;45.532;9.232;2023-02-03T04:19:50;11.93;;;7.30;;
40653;SDS011;26344;45.532;9.232;2023-02-03T04:22:16;15.18;;;8.35;;
40653;SDS011;26344;45.532;9.232;2023-02-03T04:24:42;15.60;;;8.18;;
40653;SDS011;26344;45.532;9.232;2023-02-03T04:27:08;13.10;;;7.22;;
40653;SDS011;26344;45.532;9.232;2023-02-03T04:29:34;14.73;;;8.10;;
40653;SDS011;26344;45.532;9.232;2023-02-03T04:32:00;13.13;;;7.07;;
40653;SDS011;26344;45.532;9.232;2023-02-03T04:34:27;14.02;;;7.70;;
40653;SDS011;26344;45.532;9.232;2023-02-03T04:36:53;12.45;;;7.38;;
40653;SDS011;26344;45.532;9.232;2023-02-03T04:39:19;12.32;;;7.18;;
40653;SDS011;26344;45.532;9.232;2023-02-03T04:41:46;13.75;;;7.90;;
40653;SDS011;26344;45.532;9.232;2023-02-03T04:44:12;15.98;;;7.70;;
40653;SDS011;26344;45.532;9.232;2023-02-03T04:46:38;17.20;;;8.13;;
40653;SDS011;26344;45.532;9.232;2023-02-03T04:49:04;19.13;;;8.15;;
40653;SDS011;26344;45.532;9.232;2023-02-03T04:51:30;13.68;;;7.70;;
40653;SDS011;26344;45.532;9.232;2023-02-03T04:53:56;12.73;;;7.43;;
40653;SDS011;26344;45.532;9.232;2023-02-03T04:56:22;15.30;;;7.75;;
40653;SDS011;26344;45.532;9.232;2023-02-03T04:58:48;14.38;;;7.75;;
40653;SDS011;26344;45.532;9.232;2023-02-03T05:01:14;15.27;;;7.78;;
40653;SDS011;26344;45.532;9.232;2023-02-03T05:03:40;14.95;;;8.10;;
40653;SDS011;26344;45.532;9.232;2023-02-03T05:06:06;17.50;;;8.65;;
40653;SDS011;26344;45.532;9.232;2023-02-03T05:08:33;15.30;;;8.35;;
40653;SDS011;26344;45.532;9.232;2023-02-03T05:10:59;16.73;;;8.32;;
40653;SDS011;26344;45.532;9.232;2023-02-03T05:13:25;17.33;;;8.43;;
40653;SDS011;26344;45.532;9.232;2023-02-03T05:15:51;15.70;;;8.23;;
40653;SDS011;26344;45.532;9.232;2023-02-03T05:18:17;17.13;;;9.25;;
40653;SDS011;26344;45.532;9.232;2023-02-03T05:20:43;18.42;;;9.07;;
40653;SDS011;26344;45.532;9.232;2023-02-03T05:23:09;18.50;;;9.25;;
40653;SDS011;26344;45.532;9.232;2023-02-03T05:25:35;20.08;;;8.98;;
40653;SDS011;26344;45.532;9.232;2023-02-03T05:28:01;19.08;;;9.18;;
40653;SDS011;26344;45.532;9.232;2023-02-03T05:30:30;17.02;;;9.15;;
40653;SDS011;26344;45.532;9.232;2023-02-03T05:32:56;14.75;;;9.13;;
40653;SDS011;26344;45.532;9.232;2023-02-03T05:35:22;19.70;;;9.48;;
40653;SDS011;26344;45.532;9.232;2023-02-03T05:37:48;18.83;;;9.82;;
40653;SDS011;26344;45.532;9.232;2023-02-03T05:40:14;18.75;;;9.18;;
40653;SDS011;26344;45.532;9.232;2023-02-03T05:42:58;17.67;;;9.65;;
40653;SDS011;26344;45.532;9.232;2023-02-03T05:45:24;21.00;;;9.90;;
40653;SDS011;26344;45.532;9.232;2023-02-03T05:47:52;21.70;;;9.65;;
40653;SDS011;26344;45.532;9.232;2023-02-03T05:50:18;19.15;;;9.88;;
40653;SDS011;26344;45.532;9.232;2023-02-03T05:52:44;14.98;;;9.30;;
40653;SDS011;26344;45.532;9.232;2023-02-03T05:55:10;16.27;;;9.52;;
40653;SDS011;26344;45.532;9.232;2023-02-03T05:57:36;18.90;;;9.20;;
40653;SDS011;26344;45.532;9.232;2023-02-03T06:00:02;28.13;;;10.40;;
40653;SDS011;26344;45.532;9.232;2023-02-03T06:02:28;18.08;;;9.95;;
40653;SDS011;26344;45.532;9.232;2023-02-03T06:04:54;17.33;;;10.65;;
40653;SDS011;26344;45.532;9.232;2023-02-03T06:07:20;16.35;;;9.10;;
40653;SDS011;26344;45.532;9.232;2023-02-03T06:09:46;21.83;;;10.50;;
40653;SDS011;26344;45.532;9.232;2023-02-03T06:12:13;18.23;;;9.93;;
40653;SDS011;26344;45.532;9.232;2023-02-03T06:14:40;21.73;;;10.70;;
40653;SDS011;26344;45.532;9.232;2023-02-03T06:17:07;17.90;;;9.90;;
40653;SDS011;26344;45.532;9.232;2023-02-03T06:19:33;17.35;;;10.40;;
40653;SDS011;26344;45.532;9.232;2023-02-03T06:21:59;18.08;;;10.27;;
40653;SDS011;26344;45.532;9.232;2023-02-03T06:24:25;22.98;;;10.80;;
40653;SDS011;26344;45.532;9.232;2023-02-03T06:26:51;22.40;;;10.30;;
40653;SDS011;26344;45.532;9.232;2023-02-03T06:29:17;21.63;;;10.60;;
40653;SDS011;26344;45.532;9.232;2023-02-03T06:31:43;19.80;;;10.20;;
40653;SDS011;26344;45.532;9.232;2023-02-03T06:34:09;20.77;;;11.30;;
40653;SDS011;26344;45.532;9.232;2023-02-03T06:36:35;18.80;;;9.95;;
40653;SDS011;26344;45.532;9.232;2023-02-03T06:39:01;16.63;;;9.55;;
40653;SDS011;26344;45.532;9.232;2023-02-03T06:41:27;20.60;;;9.45;;
40653;SDS011;26344;45.532;9.232;2023-02-03T06:43:54;19.48;;;9.57;;
40653;SDS011;26344;45.532;9.232;2023-02-03T06:46:20;19.42;;;10.15;;
40653;SDS011;26344;45.532;9.232;2023-02-03T06:48:46;22.63;;;11.40;;
40653;SDS011;26344;45.532;9.232;2023-02-03T06:51:12;23.13;;;10.88;;
40653;SDS011;26344;45.532;9.232;2023-02-03T06:53:38;24.35;;;11.02;;
40653;SDS011;26344;45.532;9.232;2023-02-03T06:56:04;22.52;;;10.57;;
40653;SDS011;26344;45.532;9.232;2023-02-03T06:58:30;28.90;;;11.55;;
40653;SDS011;26344;45.532;9.232;2023-02-03T07:00:56;21.83;;;11.15;;
40653;SDS011;26344;45.532;9.232;2023-02-03T07:03:22;17.20;;;10.27;;
40653;SDS011;26344;45.532;9.232;2023-02-03T07:05:47;23.30;;;10.98;;
40653;SDS011;26344;45.532;9.232;2023-02-03T07:08:13;25.20;;;10.88;;
40653;SDS011;26344;45.532;9.232;2023-02-03T07:10:39;18.77;;;10.80;;
40653;SDS011;26344;45.532;9.232;2023-02-03T07:13:05;18.98;;;10.35;;
40653;SDS011;26344;45.532;9.232;2023-02-03T07:15:32;18.17;;;11.23;;
40653;SDS011;26344;45.532;9.232;2023-02-03T07:17:58;18.88;;;10.63;;
40653;SDS011;26344;45.532;9.232;2023-02-03T07:20:24;21.85;;;10.60;;
40653;SDS011;26344;45.532;9.232;2023-02-03T07:22:59;25.90;;;11.15;;
40653;SDS011;26344;45.532;9.232;2023-02-03T07:25:25;21.25;;;10.65;;
40653;SDS011;26344;45.532;9.232;2023-02-03T07:27:51;27.40;;;11.32;;
40653;SDS011;26344;45.532;9.232;2023-02-03T07:30:17;25.25;;;11.15;;
40653;SDS011;26344;45.532;9.232;2023-02-03T07:32:46;24.08;;;10.95;;
40653;SDS011;26344;45.532;9.232;2023-02-03T07:37:38;18.30;;;10.23;;
40653;SDS011;26344;45.532;9.232;2023-02-03T07:40:04;21.27;;;11.55;;
40653;SDS011;26344;45.532;9.232;2023-02-03T07:42:30;24.13;;;11.05;;
40653;SDS011;26344;45.532;9.232;2023-02-03T07:44:57;25.15;;;10.85;;
40653;SDS011;26344;45.532;9.232;2023-02-03T07:47:23;32.38;;;11.82;;
40653;SDS011;26344;45.532;9.232;2023-02-03T07:49:49;24.08;;;11.60;;
40653;SDS011;26344;45.532;9.232;2023-02-03T07:52:15;30.88;;;12.30;;
40653;SDS011;26344;45.532;9.232;2023-02-03T07:54:41;25.67;;;11.93;;
40653;SDS011;26344;45.532;9.232;2023-02-03T07:57:07;29.42;;;11.68;;
40653;SDS011;26344;45.532;9.232;2023-02-03T07:59:33;29.38;;;11.75;;
40653;SDS011;26344;45.532;9.232;2023-02-03T08:01:59;24.45;;;11.18;;
40653;SDS011;26344;45.532;9.232;2023-02-03T08:04:25;24.80;;;11.68;;
40653;SDS011;26344;45.532;9.232;2023-02-03T08:06:51;31.50;;;11.15;;
40653;SDS011;26344;45.532;9.232;2023-02-03T08:09:17;19.85;;;10.43;;
40653;SDS011;26344;45.532;9.232;2023-02-03T08:11:43;19.60;;;9.57;;
40653;SDS011;26344;45.532;9.232;2023-02-03T08:14:09;19.85;;;9.65;;
40653;SDS011;26344;45.532;9.232;2023-02-03T08:16:34;21.48;;;10.05;;
40653;SDS011;26344;45.532;9.232;2023-02-03T08:19:00;17.67;;;9.20;;
40653;SDS011;26344;45.532;9.232;2023-02-03T08:21:26;17.67;;;9.20;;
40653;SDS011;26344;45.532;9.232;2023-02-03T08:23:52;15.40;;;8.27;;
40653;SDS011;26344;45.532;9.232;2023-02-03T08:26:18;15.50;;;8.55;;
40653;SDS011;26344;45.532;9.232;2023-02-03T08:28:47;16.67;;;8.52;;
40653;SDS011;26344;45.532;9.232;2023-02-03T08:31:13;21.38;;;9.18;;
40653;SDS011;26344;45.532;9.232;2023-02-03T08:33:39;16.38;;;9.15;;
40653;SDS011;26344;45.532;9.232;2023-02-03T08:36:05;16.83;;;8.35;;
40653;SDS011;26344;45.532;9.232;2023-02-03T08:38:32;16.92;;;8.23;;
40653;SDS011;26344;45.532;9.232;2023-02-03T08:40:58;15.10;;;8.25;;
40653;SDS011;26344;45.532;9.232;2023-02-03T08:43:24;20.55;;;9.43;;
40653;SDS011;26344;45.532;9.232;2023-02-03T08:45:50;19.52;;;9.35;;
40653;SDS011;26344;45.532;9.232;2023-02-03T08:48:16;23.88;;;8.82;;
40653;SDS011;26344;45.532;9.232;2023-02-03T08:50:42;15.43;;;9.45;;
40653;SDS011;26344;45.532;9.232;2023-02-03T08:53:09;18.80;;;9.95;;
40653;SDS011;26344;45.532;9.232;2023-02-03T08:55:38;21.10;;;10.60;;
40653;SDS011;26344;45.532;9.232;2023-02-03T08:58:04;27.35;;;10.25;;
40653;SDS011;26344;45.532;9.232;2023-02-03T09:00:30;18.27;;;9.65;;
40653;SDS011;26344;45.532;9.232;2023-02-03T09:02:56;19.40;;;9.98;;
40653;SDS011;26344;45.532;9.232;2023-02-03T09:05:22;28.23;;;10.85;;
40653;SDS011;26344;45.532;9.232;2023-02-03T09:07:48;18.80;;;10.48;;
40653;SDS011;26344;45.532;9.232;2023-02-03T09:10:14;22.70;;;11.52;;
40653;SDS011;26344;45.532;9.232;2023-02-03T09:12:40;21.02;;;10.68;;
40653;SDS011;26344;45.532;9.232;2023-02-03T09:15:05;25.00;;;11.35;;
40653;SDS011;26344;45.532;9.232;2023-02-03T09:17:31;21.80;;;11.55;;
40653;SDS011;26344;45.532;9.232;2023-02-03T09:19:57;31.20;;;13.77;;
40653;SDS011;26344;45.532;9.232;2023-02-03T09:22:23;32.67;;;14.38;;
40653;SDS011;26344;45.532;9.232;2023-02-03T09:24:49;28.67;;;14.05;;
40653;SDS011;26344;45.532;9.232;2023-02-03T09:27:15;43.03;;;18.88;;
40653;SDS011;26344;45.532;9.232;2023-02-03T09:29:43;33.47;;;16.70;;
40653;SDS011;26344;45.532;9.232;2023-02-03T09:32:09;27.85;;;16.90;;
40653;SDS011;26344;45.532;9.232;2023-02-03T09:34:35;39.17;;;19.25;;
40653;SDS011;26344;45.532;9.232;2023-02-03T09:37:01;33.15;;;19.08;;
40653;SDS011;26344;45.532;9.232;2023-02-03T09:39:28;36.95;;;20.20;;
40653;SDS011;26344;45.532;9.232;2023-02-03T09:42:15;33.78;;;19.83;;
40653;SDS011;26344;45.532;9.232;2023-02-03T09:45:17;43.35;;;19.83;;
40653;SDS011;26344;45.532;9.232;2023-02-03T09:50:25;38.80;;;19.67;;
40653;SDS011;26344;45.532;9.232;2023-02-03T09:52:54;32.78;;;18.65;;
40653;SDS011;26344;45.532;9.232;2023-02-03T09:57:57;38.80;;;19.52;;
40653;SDS011;26344;45.532;9.232;2023-02-03T10:01:00;31.48;;;19.75;;
40653;SDS011;26344;45.532;9.232;2023-02-03T10:03:37;37.65;;;20.17;;
40653;SDS011;26344;45.532;9.232;2023-02-03T10:08:54;36.08;;;19.80;;
40653;SDS011;26344;45.532;9.232;2023-02-03T10:19:56;31.20;;;18.85;;
40653;SDS011;26344;45.532;9.232;2023-02-03T10:22:26;38.20;;;19.70;;
40653;SDS011;26344;45.532;9.232;2023-02-03T10:27:32;33.05;;;18.10;;
40653;SDS011;26344;45.532;9.232;2023-02-03T10:30:05;40.92;;;19.13;;
40653;SDS011;26344;45.532;9.232;2023-02-03T10:32:48;32.45;;;18.38;;
40653;SDS011;26344;45.532;9.232;2023-02-03T10:35:17;37.30;;;17.17;;
40653;SDS011;26344;45.532;9.232;2023-02-03T10:37:44;31.73;;;19.13;;
40653;SDS011;26344;45.532;9.232;2023-02-03T10:40:15;26.13;;;17.52;;
40653;SDS011;26344;45.532;9.232;2023-02-03T10:42:41;32.55;;;16.38;;
40653;SDS011;26344;45.532;9.232;2023-02-03T10:45:50;24.00;;;14.35;;
40653;SDS011;26344;45.532;9.232;2023-02-03T10:48:15;25.15;;;14.55;;
40653;SDS011;26344;45.532;9.232;2023-02-03T10:50:43;27.27;;;13.90;;
40653;SDS011;26344;45.532;9.232;2023-02-03T10:53:20;22.33;;;13.85;;
40653;SDS011;26344;45.532;9.232;2023-02-03T10:55:51;20.67;;;12.85;;
40653;SDS011;26344;45.532;9.232;2023-02-03T10:58:27;22.90;;;13.60;;
40653;SDS011;26344;45.532;9.232;2023-02-03T11:00:56;21.92;;;12.05;;
40653;SDS011;26344;45.532;9.232;2023-02-03T11:03:29;21.50;;;12.18;;
40653;SDS011;26344;45.532;9.232;2023-02-03T11:06:11;18.75;;;11.73;;
40653;SDS011;26344;45.532;9.232;2023-02-03T11:08:42;25.55;;;12.30;;
40653;SDS011;26344;45.532;9.232;2023-02-03T11:11:31;20.37;;;11.67;;
40653;SDS011;26344;45.532;9.232;2023-02-03T11:16:29;16.27;;;9.52;;
40653;SDS011;26344;45.532;9.232;2023-02-03T11:21:40;14.50;;;8.18;;
40653;SDS011;26344;45.532;9.232;2023-02-03T11:26:56;16.58;;;6.50;;
40653;SDS011;26344;45.532;9.232;2023-02-03T11:29:35;13.02;;;6.30;;
40653;SDS011;26344;45.532;9.232;2023-02-03T11:32:12;16.08;;;6.90;;
40653;SDS011;26344;45.532;9.232;2023-02-03T11:34:46;11.88;;;6.63;;
40653;SDS011;26344;45.532;9.232;2023-02-03T11:39:54;16.33;;;7.03;;
40653;SDS011;26344;45.532;9.232;2023-02-03T11:42:57;13.07;;;7.28;;
40653;SDS011;26344;45.532;9.232;2023-02-03T11:45:24;13.85;;;7.07;;
40653;SDS011;26344;45.532;9.232;2023-02-03T11:50:39;15.67;;;7.33;;
40653;SDS011;26344;45.532;9.232;2023-02-03T11:53:14;15.25;;;7.05;;
40653;SDS011;26344;45.532;9.232;2023-02-03T12:01:30;10.77;;;6.75;;
40653;SDS011;26344;45.532;9.232;2023-02-03T12:09:36;16.63;;;7.88;;
40653;SDS011;26344;45.532;9.232;2023-02-03T12:30:48;19.48;;;6.43;;
40653;SDS011;26344;45.532;9.232;2023-02-03T12:33:26;10.68;;;6.78;;
40653;SDS011;26344;45.532;9.232;2023-02-03T12:36:10;11.85;;;6.97;;
40653;SDS011;26344;45.532;9.232;2023-02-03T12:38:44;13.48;;;7.18;;
40653;SDS011;26344;45.532;9.232;2023-02-03T12:41:16;11.40;;;7.85;;
40653;SDS011;26344;45.532;9.232;2023-02-03T12:43:47;13.05;;;7.40;;
40653;SDS011;26344;45.532;9.232;2023-02-03T12:52:25;14.35;;;8.18;;
40653;SDS011;26344;45.532;9.232;2023-02-03T12:57:40;16.10;;;8.45;;
40653;SDS011;26344;45.532;9.232;2023-02-03T13:05:22;13.93;;;8.13;;
40653;SDS011;26344;45.532;9.232;2023-02-03T13:08:01;14.40;;;8.75;;
40653;SDS011;26344;45.532;9.232;2023-02-03T13:13:13;14.80;;;8.82;;
40653;SDS011;26344;45.532;9.232;2023-02-03T13:15:45;13.55;;;8.70;;
40653;SDS011;26344;45.532;9.232;2023-02-03T13:20:43;12.50;;;8.40;;
40653;SDS011;26344;45.532;9.232;2023-02-03T13:23:11;17.65;;;9.02;;
40653;SDS011;26344;45.532;9.232;2023-02-03T13:25:42;19.67;;;8.45;;
40653;SDS011;26344;45.532;9.232;2023-02-03T13:44:46;20.35;;;11.57;;
40653;SDS011;26344;45.532;9.232;2023-02-03T13:47:20;15.63;;;9.93;;
40653;SDS011;26344;45.532;9.232;2023-02-03T13:49:54;16.67;;;9.98;;
40653;SDS011;26344;45.532;9.232;2023-02-03T13:52:28;18.52;;;10.60;;
40653;SDS011;26344;45.532;9.232;2023-02-03T13:55:06;17.20;;;10.50;;
40653;SDS011;26344;45.532;9.232;2023-02-03T13:57:36;17.17;;;11.07;;
40653;SDS011;26344;45.532;9.232;2023-02-03T14:00:04;17.55;;;10.90;;
40653;SDS011;26344;45.532;9.232;2023-02-03T14:02:51;18.27;;;10.30;;
40653;SDS011;26344;45.532;9.232;2023-02-03T14:05:51;18.85;;;9.60;;
40653;SDS011;26344;45.532;9.232;2023-02-03T14:16:46;17.00;;;8.68;;
40653;SDS011;26344;45.532;9.232;2023-02-03T14:21:54;12.48;;;8.88;;
40653;SDS011;26344;45.532;9.232;2023-02-03T14:24:23;13.73;;;8.85;;
40653;SDS011;26344;45.532;9.232;2023-02-03T14:26:55;11.93;;;8.90;;
40653;SDS011;26344;45.532;9.232;2023-02-03T14:29:26;13.23;;;8.65;;
40653;SDS011;26344;45.532;9.232;2023-02-03T14:32:04;13.93;;;9.27;;
40653;SDS011;26344;45.532;9.232;2023-02-03T14:37:14;18.33;;;8.73;;
40653;SDS011;26344;45.532;9.232;2023-02-03T14:56:11;15.25;;;11.07;;
40653;SDS011;26344;45.532;9.232;2023-02-03T14:58:51;15.63;;;9.52;;
40653;SDS011;26344;45.532;9.232;2023-02-03T15:06:43;13.48;;;8.98;;
40653;SDS011;26344;45.532;9.232;2023-02-03T15:09:56;15.70;;;9.52;;
40653;SDS011;26344;45.532;9.232;2023-02-03T15:12:16;14.50;;;9.38;;
40653;SDS011;26344;45.532;9.232;2023-02-03T15:14:43;15.40;;;8.82;;
40653;SDS011;26344;45.532;9.232;2023-02-03T15:17:19;16.38;;;8.00;;
40653;SDS011;26344;45.532;9.232;2023-02-03T15:19:48;17.27;;;8.07;;
40653;SDS011;26344;45.532;9.232;2023-02-03T15:25:00;15.00;;;7.03;;
40653;SDS011;26344;45.532;9.232;2023-02-03T15:27:32;11.30;;;6.65;;
40653;SDS011;26344;45.532;9.232;2023-02-03T15:29:58;15.52;;;5.78;;
40653;SDS011;26344;45.532;9.232;2023-02-03T15:32:40;13.27;;;5.22;;
40653;SDS011;26344;45.532;9.232;2023-02-03T15:35:15;9.07;;;5.38;;
40653;SDS011;26344;45.532;9.232;2023-02-03T15:40:16;9.75;;;5.50;;
40653;SDS011;26344;45.532;9.232;2023-02-03T15:42:54;9.55;;;5.45;;
40653;SDS011;26344;45.532;9.232;2023-02-03T15:45:40;12.10;;;5.78;;
40653;SDS011;26344;45.532;9.232;2023-02-03T15:48:18;9.60;;;5.38;;
40653;SDS011;26344;45.532;9.232;2023-02-03T15:50:53;14.18;;;5.78;;
40653;SDS011;26344;45.532;9.232;2023-02-03T15:53:34;16.77;;;5.90;;
40653;SDS011;26344;45.532;9.232;2023-02-03T15:56:22;13.70;;;5.68;;
40653;SDS011;26344;45.532;9.232;2023-02-03T15:58:52;12.75;;;5.93;;
40653;SDS011;26344;45.532;9.232;2023-02-03T16:01:20;12.73;;;6.35;;
40653;SDS011;26344;45.532;9.232;2023-02-03T16:03:48;12.07;;;6.40;;
40653;SDS011;26344;45.532;9.232;2023-02-03T16:08:46;14.73;;;6.60;;
40653;SDS011;26344;45.532;9.232;2023-02-03T16:11:29;10.13;;;6.40;;
40653;SDS011;26344;45.532;9.232;2023-02-03T16:14:05;14.05;;;7.68;;
40653;SDS011;26344;45.532;9.232;2023-02-03T16:19:01;18.27;;;8.27;;
40653;SDS011;26344;45.532;9.232;2023-02-03T16:23:55;17.90;;;8.68;;
40653;SDS011;26344;45.532;9.232;2023-02-03T16:26:21;13.38;;;8.55;;
40653;SDS011;26344;45.532;9.232;2023-02-03T16:31:48;19.70;;;9.57;;
40653;SDS011;26344;45.532;9.232;2023-02-03T16:34:32;15.68;;;9.60;;
40653;SDS011;26344;45.532;9.232;2023-02-03T16:37:28;15.77;;;9.18;;
40653;SDS011;26344;45.532;9.232;2023-02-03T16:40:17;17.60;;;9.73;;
40653;SDS011;26344;45.532;9.232;2023-02-03T16:43:13;17.63;;;10.60;;
40653;SDS011;26344;45.532;9.232;2023-02-03T16:45:58;17.27;;;10.00;;
40653;SDS011;26344;45.532;9.232;2023-02-03T16:48:43;17.92;;;9.95;;
40653;SDS011;26344;45.532;9.232;2023-02-03T16:51:32;18.05;;;9.07;;
40653;SDS011;26344;45.532;9.232;2023-02-03T16:54:04;18.80;;;10.85;;
40653;SDS011;26344;45.532;9.232;2023-02-03T16:56:30;22.52;;;10.65;;
40653;SDS011;26344;45.532;9.232;2023-02-03T16:58:58;20.55;;;10.80;;
40653;SDS011;26344;45.532;9.232;2023-02-03T17:01:23;20.85;;;10.27;;
40653;SDS011;26344;45.532;9.232;2023-02-03T17:03:49;18.98;;;11.50;;
40653;SDS011;26344;45.532;9.232;2023-02-03T17:06:15;16.05;;;10.20;;
40653;SDS011;26344;45.532;9.232;2023-02-03T17:08:41;17.83;;;10.25;;
40653;SDS011;26344;45.532;9.232;2023-02-03T17:11:18;22.45;;;10.63;;
40653;SDS011;26344;45.532;9.232;2023-02-03T17:13:45;21.70;;;11.25;;
40653;SDS011;26344;45.532;9.232;2023-02-03T17:16:12;19.83;;;10.60;;
40653;SDS011;26344;45.532;9.232;2023-02-03T17:18:43;20.38;;;10.52;;
40653;SDS011;26344;45.532;9.232;2023-02-03T17:21:11;18.30;;;10.63;;
40653;SDS011;26344;45.532;9.232;2023-02-03T17:23:39;28.00;;;11.00;;
40653;SDS011;26344;45.532;9.232;2023-02-03T17:26:04;21.13;;;10.85;;
40653;SDS011;26344;45.532;9.232;2023-02-03T17:28:30;21.50;;;11.48;;
40653;SDS011;26344;45.532;9.232;2023-02-03T17:30:57;20.73;;;10.63;;
40653;SDS011;26344;45.532;9.232;2023-02-03T17:33:25;18.08;;;10.20;;
40653;SDS011;26344;45.532;9.232;2023-02-03T17:36:02;22.63;;;11.20;;
40653;SDS011;26344;45.532;9.232;2023-02-03T17:38:37;17.90;;;11.00;;
40653;SDS011;26344;45.532;9.232;2023-02-03T17:41:11;20.08;;;11.25;;
40653;SDS011;26344;45.532;9.232;2023-02-03T17:43:38;22.42;;;11.50;;
40653;SDS011;26344;45.532;9.232;2023-02-03T17:46:05;19.40;;;11.43;;